createdAt,value
2018-04-17T00:01:00.855Z,79.21
2018-04-17T00:02:06.366Z,79.59
2018-04-17T00:03:11.875Z,79.97
2018-04-17T00:04:17.388Z,79.07
2018-04-17T00:05:22.897Z,79.68
2018-04-17T00:06:28.410Z,79.55
2018-04-17T00:07:33.922Z,79.36
2018-04-17T00:08:39.440Z,79.74
2018-04-17T00:09:44.954Z,79.46
2018-04-17T00:10:50.457Z,79.74
2018-04-17T00:11:55.970Z,80.22
2018-04-17T00:13:01.481Z,80.02
2018-04-17T00:14:06.994Z,80.12
2018-04-17T00:15:12.506Z,80.07
2018-04-17T00:16:18.029Z,80.22
2018-04-17T00:17:23.529Z,79.93
2018-04-17T00:18:29.042Z,80.02
2018-04-17T00:19:34.557Z,79.55
2018-04-17T00:20:40.077Z,79.55
2018-04-17T00:21:45.577Z,79.46
2018-04-17T00:22:51.087Z,79.36
2018-04-17T00:23:56.695Z,79.36
2018-04-17T00:25:02.114Z,79.36
2018-04-17T00:26:07.620Z,79.46
2018-04-17T00:27:13.133Z,79.46
2018-04-17T00:28:18.645Z,79.55
2018-04-17T00:29:24.177Z,79.36
2018-04-17T00:30:29.676Z,79.46
2018-04-17T00:31:35.198Z,79.46
2018-04-17T00:32:40.691Z,79.93
2018-04-17T00:33:46.207Z,79.55
2018-04-17T00:34:51.712Z,80.02
2018-04-17T00:35:57.223Z,80.22
2018-04-17T00:37:02.738Z,79.93
2018-04-17T00:38:08.246Z,80.22
2018-04-17T00:39:13.763Z,80.22
2018-04-17T00:40:19.272Z,80.12
2018-04-17T00:41:24.787Z,80.02
2018-04-17T00:42:30.296Z,80.22
2018-04-17T00:43:35.805Z,80.41
2018-04-17T00:44:41.316Z,80.22
2018-04-17T00:45:46.827Z,79.64
2018-04-17T00:46:52.349Z,79.64
2018-04-17T00:47:57.851Z,80.22
2018-04-17T00:49:03.365Z,80.12
2018-04-17T00:50:08.877Z,79.55
2018-04-17T00:51:14.388Z,79.83
2018-04-17T00:52:19.902Z,79.46
2018-04-17T00:53:25.415Z,79.46
2018-04-17T00:54:30.929Z,79.55
2018-04-17T00:55:36.436Z,79.83
2018-04-17T00:56:41.949Z,79.64
2018-04-17T00:57:47.482Z,79.64
2018-04-17T00:58:52.967Z,79.64
2018-04-17T00:59:58.484Z,79.80
2018-04-17T01:01:03.993Z,80.31
2018-04-17T01:02:09.507Z,80.08
2018-04-17T01:03:15.018Z,79.80
2018-04-17T01:04:20.527Z,80.46
2018-04-17T01:05:26.056Z,80.46
2018-04-17T01:06:31.548Z,80.55
2018-04-17T01:07:37.069Z,80.27
2018-04-17T01:08:42.584Z,79.99
2018-04-17T01:09:48.081Z,80.94
2018-04-17T01:10:53.599Z,80.84
2018-04-17T01:11:59.103Z,80.84
2018-04-17T01:13:04.618Z,80.75
2018-04-17T01:14:10.132Z,80.55
2018-04-17T01:15:15.648Z,80.75
2018-04-17T01:16:21.148Z,80.84
2018-04-17T01:17:26.660Z,80.65
2018-04-17T01:18:32.175Z,80.46
2018-04-17T01:19:37.685Z,80.55
2018-04-17T01:20:43.197Z,80.55
2018-04-17T01:21:48.709Z,81.03
2018-04-17T01:22:54.221Z,80.75
2018-04-17T01:23:59.728Z,80.46
2018-04-17T01:25:05.249Z,80.94
2018-04-17T01:26:10.754Z,80.75
2018-04-17T01:27:16.264Z,81.13
2018-04-17T01:28:21.776Z,81.13
2018-04-17T01:29:27.293Z,80.75
2018-04-17T01:30:32.793Z,80.94
2018-04-17T01:31:38.304Z,81.03
2018-04-17T01:32:43.818Z,80.94
2018-04-17T01:33:49.328Z,81.13
2018-04-17T01:34:54.842Z,81.47
2018-04-17T01:36:00.357Z,81.09
2018-04-17T01:37:05.865Z,80.99
2018-04-17T01:38:11.380Z,80.99
2018-04-17T01:39:16.884Z,81.37
2018-04-17T01:40:22.405Z,81.41
2018-04-17T01:41:27.907Z,80.99
2018-04-17T01:42:33.496Z,80.90
2018-04-17T01:43:38.928Z,81.09
2018-04-17T01:44:44.438Z,80.71
2018-04-17T01:45:49.955Z,80.99
2018-04-17T01:46:55.459Z,81.13
2018-04-17T01:48:00.977Z,80.80
2018-04-17T01:49:06.489Z,81.23
2018-04-17T01:50:11.995Z,81.32
2018-04-17T01:51:17.508Z,81.09
2018-04-17T01:52:23.013Z,81.66
2018-04-17T01:53:28.527Z,81.47
2018-04-17T01:54:34.038Z,81.56
2018-04-17T01:55:39.550Z,81.56
2018-04-17T01:56:45.061Z,81.56
2018-04-17T01:57:50.568Z,81.56
2018-04-17T01:58:56.080Z,81.37
2018-04-17T02:00:01.602Z,81.37
2018-04-17T02:01:07.108Z,81.47
2018-04-17T02:02:12.615Z,81.56
2018-04-17T02:03:18.144Z,81.76
2018-04-17T02:04:23.637Z,81.56
2018-04-17T02:05:29.148Z,81.76
2018-04-17T02:06:34.662Z,81.56
2018-04-17T02:07:40.172Z,81.37
2018-04-17T02:08:45.682Z,81.47
2018-04-17T02:09:51.193Z,81.56
2018-04-17T02:10:56.701Z,81.47
2018-04-17T02:12:02.210Z,81.56
2018-04-17T02:13:07.727Z,81.37
2018-04-17T02:14:13.239Z,81.56
2018-04-17T02:15:18.763Z,81.56
2018-04-17T02:16:24.261Z,81.47
2018-04-17T02:17:29.767Z,81.66
2018-04-17T02:18:35.283Z,81.37
2018-04-17T02:19:40.790Z,81.76
2018-04-17T02:20:46.301Z,82.04
2018-04-17T02:21:51.815Z,82.04
2018-04-17T02:22:57.323Z,81.56
2018-04-17T02:24:02.834Z,81.56
2018-04-17T02:25:08.342Z,81.47
2018-04-17T02:26:13.861Z,81.37
2018-04-17T02:27:19.367Z,81.56
2018-04-17T02:28:24.874Z,81.56
2018-04-17T02:29:30.392Z,81.56
2018-04-17T02:30:35.907Z,81.28
2018-04-17T02:31:41.411Z,81.47
2018-04-17T02:32:46.925Z,81.76
2018-04-17T02:33:52.428Z,82.04
2018-04-17T02:34:57.940Z,82.23
2018-04-17T02:36:03.453Z,82.04
2018-04-17T02:37:08.962Z,81.95
2018-04-17T02:38:14.488Z,82.14
2018-04-17T02:39:19.990Z,82.32
2018-04-17T02:40:25.495Z,82.23
2018-04-17T02:41:31.007Z,82.04
2018-04-17T02:42:36.518Z,82.23
2018-04-17T02:43:42.038Z,82.23
2018-04-17T02:44:47.538Z,82.42
2018-04-17T02:45:53.048Z,81.66
2018-04-17T02:46:58.559Z,81.66
2018-04-17T02:48:04.075Z,81.76
2018-04-17T02:49:09.580Z,81.76
2018-04-17T02:50:15.090Z,82.14
2018-04-17T02:51:20.601Z,81.85
2018-04-17T02:52:26.114Z,82.23
2018-04-17T02:53:31.623Z,81.28
2018-04-17T02:54:37.132Z,81.47
2018-04-17T02:55:42.644Z,81.71
2018-04-17T02:56:48.154Z,82.19
2018-04-17T02:57:53.674Z,82.42
2018-04-17T02:58:59.176Z,82.04
2018-04-17T03:00:04.691Z,82.09
2018-04-17T03:01:10.203Z,82.00
2018-04-17T03:02:15.710Z,81.81
2018-04-17T03:03:21.245Z,82.76
2018-04-17T03:04:26.773Z,82.86
2018-04-17T03:05:32.240Z,82.80
2018-04-17T03:06:37.752Z,82.76
2018-04-17T03:07:43.266Z,83.33
2018-04-17T03:08:48.769Z,83.52
2018-04-17T03:09:54.280Z,82.76
2018-04-17T03:10:59.797Z,82.42
2018-04-17T03:12:05.300Z,82.23
2018-04-17T03:13:10.813Z,82.04
2018-04-17T03:14:16.325Z,82.04
2018-04-17T03:15:21.837Z,81.76
2018-04-17T03:16:27.344Z,81.66
2018-04-17T03:17:32.866Z,81.56
2018-04-17T03:18:38.364Z,81.66
2018-04-17T03:19:43.882Z,81.56
2018-04-17T03:20:49.387Z,81.47
2018-04-17T03:21:54.909Z,81.66
2018-04-17T03:23:00.408Z,81.37
2018-04-17T03:24:05.919Z,81.28
2018-04-17T03:25:11.429Z,81.37
2018-04-17T03:26:16.941Z,81.56
2018-04-17T03:27:22.448Z,81.56
2018-04-17T03:28:27.963Z,81.37
2018-04-17T03:29:33.482Z,81.09
2018-04-17T03:30:38.982Z,81.09
2018-04-17T03:31:44.497Z,81.56
2018-04-17T03:32:50.007Z,81.37
2018-04-17T03:33:55.513Z,80.99
2018-04-17T03:35:01.023Z,81.18
2018-04-17T03:36:06.551Z,80.99
2018-04-17T03:37:12.044Z,80.99
2018-04-17T03:38:17.555Z,80.90
2018-04-17T03:39:23.067Z,80.80
2018-04-17T03:40:28.590Z,81.18
2018-04-17T03:41:34.091Z,81.28
2018-04-17T03:42:39.599Z,81.18
2018-04-17T03:43:45.153Z,81.18
2018-04-17T03:44:50.638Z,81.56
2018-04-17T03:45:56.129Z,81.28
2018-04-17T03:47:01.641Z,81.37
2018-04-17T03:48:07.151Z,82.51
2018-04-17T03:49:12.668Z,82.14
2018-04-17T03:50:18.174Z,81.76
2018-04-17T03:51:23.686Z,81.47
2018-04-17T03:52:29.193Z,81.37
2018-04-17T03:53:34.705Z,81.09
2018-04-17T03:54:40.215Z,80.90
2018-04-17T03:55:45.727Z,81.56
2018-04-17T03:56:51.237Z,81.47
2018-04-17T03:57:56.745Z,81.52
2018-04-17T03:59:02.256Z,81.33
2018-04-17T04:00:07.764Z,81.52
2018-04-17T04:01:13.298Z,81.62
2018-04-17T04:02:18.788Z,81.52
2018-04-17T04:03:24.295Z,81.52
2018-04-17T04:04:29.807Z,81.24
2018-04-17T04:05:35.318Z,81.71
2018-04-17T04:06:40.825Z,81.24
2018-04-17T04:07:46.341Z,81.90
2018-04-17T04:08:51.847Z,81.71
2018-04-17T04:09:57.358Z,81.43
2018-04-17T04:11:02.876Z,81.24
2018-04-17T04:12:08.379Z,81.43
2018-04-17T04:13:13.892Z,81.71
2018-04-17T04:14:19.404Z,81.43
2018-04-17T04:15:24.917Z,82.00
2018-04-17T04:16:30.423Z,82.09
2018-04-17T04:17:35.939Z,82.00
2018-04-17T04:18:41.448Z,82.38
2018-04-17T04:19:46.958Z,82.19
2018-04-17T04:20:52.463Z,82.28
2018-04-17T04:21:57.978Z,82.48
2018-04-17T04:23:03.485Z,82.67
2018-04-17T04:24:09.012Z,83.04
2018-04-17T04:25:14.507Z,82.76
2018-04-17T04:26:20.018Z,82.86
2018-04-17T04:27:25.538Z,82.67
2018-04-17T04:28:31.041Z,82.95
2018-04-17T04:29:36.556Z,82.57
2018-04-17T04:30:42.056Z,82.76
2018-04-17T04:31:47.577Z,82.57
2018-04-17T04:32:53.078Z,82.67
2018-04-17T04:33:58.587Z,82.95
2018-04-17T04:35:04.122Z,82.86
2018-04-17T04:36:09.607Z,82.28
2018-04-17T04:37:15.131Z,82.38
2018-04-17T04:38:20.632Z,82.28
2018-04-17T04:39:26.161Z,82.67
2018-04-17T04:40:31.654Z,82.38
2018-04-17T04:41:37.165Z,82.76
2018-04-17T04:42:42.669Z,82.57
2018-04-17T04:43:48.188Z,82.86
2018-04-17T04:44:53.693Z,82.57
2018-04-17T04:45:59.205Z,82.38
2018-04-17T04:47:04.719Z,82.38
2018-04-17T04:48:10.223Z,82.67
2018-04-17T04:49:15.730Z,82.67
2018-04-17T04:50:21.249Z,82.86
2018-04-17T04:51:26.757Z,82.86
2018-04-17T04:52:32.264Z,82.67
2018-04-17T04:53:37.773Z,82.95
2018-04-17T04:54:43.290Z,82.57
2018-04-17T04:55:48.806Z,82.67
2018-04-17T04:56:54.304Z,82.76
2018-04-17T04:57:59.815Z,83.14
2018-04-17T04:59:05.330Z,83.04
2018-04-17T05:00:10.843Z,83.23
2018-04-17T05:01:16.355Z,83.62
2018-04-17T05:02:21.863Z,82.76
2018-04-17T05:03:27.365Z,83.23
2018-04-17T05:04:32.886Z,83.71
2018-04-17T05:05:38.389Z,83.04
2018-04-17T05:06:43.900Z,83.04
2018-04-17T05:07:49.409Z,83.62
2018-04-17T05:08:54.922Z,83.71
2018-04-17T05:10:00.427Z,83.52
2018-04-17T05:11:05.938Z,83.71
2018-04-17T05:12:11.452Z,83.62
2018-04-17T05:13:16.969Z,83.52
2018-04-17T05:14:22.477Z,83.52
2018-04-17T05:15:27.978Z,83.81
2018-04-17T05:16:33.488Z,84.09
2018-04-17T05:17:38.998Z,84.38
2018-04-17T05:18:44.512Z,84.28
2018-04-17T05:19:50.023Z,84.85
2018-04-17T05:20:55.536Z,84.66
2018-04-17T05:22:01.041Z,84.66
2018-04-17T05:23:06.552Z,84.38
2018-04-17T05:24:12.072Z,84.38
2018-04-17T05:25:17.580Z,84.00
2018-04-17T05:26:23.094Z,84.19
2018-04-17T05:27:28.592Z,84.38
2018-04-17T05:28:34.106Z,84.09
2018-04-17T05:29:39.618Z,84.09
2018-04-17T05:30:45.130Z,83.90
2018-04-17T05:31:50.638Z,84.09
2018-04-17T05:32:56.149Z,84.47
2018-04-17T05:34:01.670Z,84.76
2018-04-17T05:35:07.165Z,84.56
2018-04-17T05:36:12.678Z,84.47
2018-04-17T05:37:18.190Z,84.56
2018-04-17T05:38:23.707Z,84.38
2018-04-17T05:39:29.210Z,85.24
2018-04-17T05:40:34.773Z,85.08
2018-04-17T05:41:40.229Z,85.14
2018-04-17T05:42:45.738Z,84.99
2018-04-17T05:43:51.256Z,84.70
2018-04-17T05:44:56.762Z,85.28
2018-04-17T05:46:02.278Z,84.42
2018-04-17T05:47:07.783Z,85.47
2018-04-17T05:48:13.299Z,84.42
2018-04-17T05:49:18.809Z,84.42
2018-04-17T05:50:24.330Z,84.80
2018-04-17T05:51:29.826Z,85.56
2018-04-17T05:52:35.337Z,85.28
2018-04-17T05:53:40.858Z,84.89
2018-04-17T05:54:46.361Z,84.89
2018-04-17T05:55:51.899Z,85.66
2018-04-17T05:56:57.379Z,85.56
2018-04-17T05:58:02.898Z,85.56
2018-04-17T05:59:08.400Z,85.56
2018-04-17T06:00:13.923Z,85.37
2018-04-17T06:01:19.426Z,85.66
2018-04-17T06:02:24.929Z,85.75
2018-04-17T06:03:30.448Z,85.22
2018-04-17T06:04:35.954Z,85.13
2018-04-17T06:05:41.468Z,85.22
2018-04-17T06:06:46.979Z,84.94
2018-04-17T06:07:52.491Z,85.13
2018-04-17T06:08:57.997Z,85.13
2018-04-17T06:10:03.508Z,85.03
2018-04-17T06:11:09.024Z,84.75
2018-04-17T06:12:14.526Z,85.80
2018-04-17T06:13:20.040Z,85.70
2018-04-17T06:14:25.552Z,85.70
2018-04-17T06:15:31.060Z,85.70
2018-04-17T06:16:36.575Z,86.27
2018-04-17T06:17:42.088Z,85.22
2018-04-17T06:18:47.608Z,85.32
2018-04-17T06:19:53.110Z,85.36
2018-04-17T06:20:58.615Z,84.60
2018-04-17T06:22:04.128Z,84.88
2018-04-17T06:23:09.640Z,84.69
2018-04-17T06:24:15.151Z,85.27
2018-04-17T06:25:20.662Z,84.50
2018-04-17T06:26:26.179Z,84.69
2018-04-17T06:27:31.689Z,85.46
2018-04-17T06:28:37.200Z,84.98
2018-04-17T06:29:42.708Z,85.84
2018-04-17T06:30:48.215Z,84.60
2018-04-17T06:31:53.732Z,85.08
2018-04-17T06:32:59.251Z,85.17
2018-04-17T06:34:04.754Z,84.69
2018-04-17T06:35:10.274Z,85.27
2018-04-17T06:36:15.773Z,85.02
2018-04-17T06:37:21.282Z,85.12
2018-04-17T06:38:26.796Z,85.50
2018-04-17T06:39:32.318Z,84.74
2018-04-17T06:40:37.822Z,84.55
2018-04-17T06:41:43.374Z,85.02
2018-04-17T06:42:48.845Z,85.60
2018-04-17T06:43:54.356Z,84.74
2018-04-17T06:44:59.864Z,84.92
2018-04-17T06:46:05.385Z,84.74
2018-04-17T06:47:10.907Z,84.64
2018-04-17T06:48:16.399Z,85.21
2018-04-17T06:49:21.909Z,84.83
2018-04-17T06:50:27.421Z,84.45
2018-04-17T06:51:32.935Z,84.49
2018-04-17T06:52:38.525Z,84.49
2018-04-17T06:53:43.971Z,84.49
2018-04-17T06:54:49.478Z,84.78
2018-04-17T06:55:54.994Z,84.69
2018-04-17T06:57:00.496Z,84.69
2018-04-17T06:58:06.073Z,84.69
2018-04-17T06:59:11.579Z,84.30
2018-04-17T07:00:17.036Z,84.40
2018-04-17T07:01:22.549Z,84.11
2018-04-17T07:02:28.059Z,83.83
2018-04-17T07:03:33.569Z,83.77
2018-04-17T07:04:39.086Z,83.58
2018-04-17T07:05:44.598Z,83.87
2018-04-17T07:06:50.102Z,83.29
2018-04-17T07:07:55.737Z,83.20
2018-04-17T07:09:01.149Z,82.34
2018-04-17T07:10:06.647Z,82.57
2018-04-17T07:11:12.159Z,82.15
2018-04-17T07:12:17.695Z,81.81
2018-04-17T07:13:23.188Z,81.71
2018-04-17T07:14:28.693Z,81.71
2018-04-17T07:15:34.208Z,81.62
2018-04-17T07:16:39.721Z,81.62
2018-04-17T07:17:45.241Z,81.62
2018-04-17T07:18:50.752Z,81.62
2018-04-17T07:19:56.259Z,81.62
2018-04-17T07:21:01.769Z,81.37
2018-04-17T07:22:07.282Z,80.99
2018-04-17T07:23:12.790Z,81.09
2018-04-17T07:24:18.310Z,80.90
2018-04-17T07:25:23.818Z,81.09
2018-04-17T07:26:29.332Z,80.61
2018-04-17T07:27:34.843Z,80.41
2018-04-17T07:28:40.359Z,79.56
2018-04-17T07:29:45.867Z,79.85
2018-04-17T07:30:51.380Z,79.98
2018-04-17T07:31:56.959Z,79.79
2018-04-17T07:33:02.408Z,79.50
2018-04-17T07:34:07.920Z,79.60
2018-04-17T07:35:13.437Z,78.16
2018-04-17T07:36:18.959Z,78.68
2018-04-17T07:37:24.460Z,77.92
2018-04-17T07:38:29.981Z,78.11
2018-04-17T07:39:35.485Z,77.72
2018-04-17T07:40:41.002Z,77.72
2018-04-17T07:41:46.516Z,77.34
2018-04-17T07:42:52.043Z,76.86
2018-04-17T07:43:57.543Z,76.52
2018-04-17T07:45:03.057Z,76.14
2018-04-17T07:46:08.567Z,75.66
2018-04-17T07:47:14.092Z,75.18
2018-04-17T07:48:19.606Z,74.80
2018-04-17T07:49:25.113Z,73.94
2018-04-17T07:50:30.627Z,73.36
2018-04-17T07:51:36.147Z,73.02
2018-04-17T07:52:41.662Z,72.44
2018-04-17T07:53:47.164Z,72.16
2018-04-17T07:54:52.680Z,72.06
2018-04-17T07:55:58.197Z,72.06
2018-04-17T07:57:03.707Z,71.48
2018-04-17T07:58:09.230Z,71.33
2018-04-17T07:59:14.747Z,71.04
2018-04-17T08:00:20.267Z,70.56
2018-04-17T08:01:25.876Z,70.09
2018-04-17T08:02:31.283Z,70.47
2018-04-17T08:03:36.799Z,69.99
2018-04-17T08:04:42.351Z,69.42
2018-04-17T08:05:47.834Z,69.35
2018-04-17T08:06:53.342Z,69.07
2018-04-17T08:07:58.850Z,68.21
2018-04-17T08:09:04.375Z,67.54
2018-04-17T08:10:09.885Z,66.96
2018-04-17T08:11:15.407Z,66.58
2018-04-17T08:12:20.926Z,67.15
2018-04-17T08:13:26.429Z,67.05
2018-04-17T08:14:31.940Z,66.38
2018-04-17T08:15:37.452Z,65.55
2018-04-17T08:16:42.965Z,64.50
2018-04-17T08:17:48.486Z,65.46
2018-04-17T08:18:54.007Z,64.79
2018-04-17T08:19:59.518Z,64.31
2018-04-17T08:21:05.034Z,64.22
2018-04-17T08:22:10.541Z,63.96
2018-04-17T08:23:16.057Z,63.96
2018-04-17T08:24:21.572Z,64.05
2018-04-17T08:25:27.110Z,63.29
2018-04-17T08:26:32.624Z,63.29
2018-04-17T08:27:38.123Z,63.57
2018-04-17T08:28:43.634Z,63.00
2018-04-17T08:29:49.148Z,61.59
2018-04-17T08:30:54.669Z,60.89
2018-04-17T08:32:00.180Z,61.02
2018-04-17T08:33:05.694Z,60.53
2018-04-17T08:34:11.218Z,59.96
2018-04-17T08:35:16.725Z,60.05
2018-04-17T08:36:22.244Z,60.15
2018-04-17T08:37:27.764Z,59.67
2018-04-17T08:38:33.275Z,59.58
2018-04-17T08:39:38.792Z,60.05
2018-04-17T08:40:44.310Z,60.28
2018-04-17T08:41:49.820Z,61.49
2018-04-17T08:42:55.340Z,61.43
2018-04-17T08:44:00.850Z,60.85
2018-04-17T08:45:06.375Z,60.38
2018-04-17T08:46:11.897Z,61.24
2018-04-17T08:47:17.398Z,60.85
2018-04-17T08:48:22.917Z,58.94
2018-04-17T08:49:28.429Z,58.84
2018-04-17T08:50:33.950Z,60.08
2018-04-17T08:51:39.465Z,60.47
2018-04-17T08:52:44.987Z,61.05
2018-04-17T08:53:50.548Z,61.17
2018-04-17T08:54:56.014Z,60.02
2018-04-17T08:56:01.529Z,59.25
2018-04-17T08:57:07.045Z,58.20
2018-04-17T08:58:12.561Z,57.04
2018-04-17T08:59:18.074Z,57.14
2018-04-17T09:00:23.595Z,57.33
2018-04-17T09:01:29.122Z,57.33
2018-04-17T09:02:34.634Z,57.62
2018-04-17T09:03:40.148Z,57.23
2018-04-17T09:04:45.659Z,57.04
2018-04-17T09:05:51.172Z,55.99
2018-04-17T09:06:56.689Z,55.32
2018-04-17T09:08:02.208Z,56.08
2018-04-17T09:09:07.725Z,55.53
2018-04-17T09:10:13.240Z,54.38
2018-04-17T09:11:18.754Z,54.67
2018-04-17T09:12:24.270Z,54.28
2018-04-17T09:13:29.847Z,53.23
2018-04-17T09:14:35.321Z,54.00
2018-04-17T09:15:40.890Z,54.67
2018-04-17T09:16:46.339Z,54.60
2018-04-17T09:17:51.854Z,54.79
2018-04-17T09:18:57.369Z,54.99
2018-04-17T09:20:02.887Z,54.99
2018-04-17T09:21:08.414Z,55.66
2018-04-17T09:22:13.925Z,53.64
2018-04-17T09:23:19.445Z,53.45
2018-04-17T09:24:24.970Z,52.80
2018-04-17T09:25:30.473Z,53.86
2018-04-17T09:26:35.994Z,54.63
2018-04-17T09:27:41.506Z,53.47
2018-04-17T09:28:47.019Z,52.80
2018-04-17T09:29:52.548Z,53.66
2018-04-17T09:30:58.054Z,53.47
2018-04-17T09:32:03.574Z,53.59
2018-04-17T09:33:09.151Z,53.98
2018-04-17T09:34:14.605Z,51.96
2018-04-17T09:35:20.120Z,52.73
2018-04-17T09:36:25.644Z,53.43
2018-04-17T09:37:31.156Z,51.50
2018-04-17T09:38:36.677Z,51.98
2018-04-17T09:39:42.189Z,50.83
2018-04-17T09:40:47.727Z,50.35
2018-04-17T09:41:53.223Z,50.73
2018-04-17T09:42:58.745Z,50.83
2018-04-17T09:44:04.267Z,50.83
2018-04-17T09:45:09.777Z,50.83
2018-04-17T09:46:15.296Z,49.19
2018-04-17T09:47:20.815Z,48.90
2018-04-17T09:48:26.334Z,48.23
2018-04-17T09:49:31.847Z,47.27
2018-04-17T09:50:37.412Z,49.79
2018-04-17T09:51:42.881Z,49.12
2018-04-17T09:52:48.404Z,49.22
2018-04-17T09:53:53.922Z,47.67
2018-04-17T09:54:59.433Z,48.25
2018-04-17T09:56:04.954Z,47.87
2018-04-17T09:57:10.472Z,46.91
2018-04-17T09:58:15.994Z,47.99
2018-04-17T09:59:21.520Z,48.47
2018-04-17T10:00:27.026Z,47.60
2018-04-17T10:01:32.543Z,47.12
2018-04-17T10:02:38.060Z,47.03
2018-04-17T10:03:43.580Z,46.93
2018-04-17T10:04:49.094Z,47.12
2018-04-17T10:05:54.615Z,47.22
2018-04-17T10:07:00.129Z,47.12
2018-04-17T10:08:05.652Z,47.22
2018-04-17T10:09:11.198Z,46.64
2018-04-17T10:10:16.685Z,46.25
2018-04-17T10:11:22.205Z,46.25
2018-04-17T10:12:27.722Z,44.90
2018-04-17T10:13:33.241Z,45.68
2018-04-17T10:14:38.759Z,45.58
2018-04-17T10:15:44.277Z,45.87
2018-04-17T10:16:49.794Z,44.90
2018-04-17T10:17:55.312Z,44.71
2018-04-17T10:19:00.827Z,44.83
2018-04-17T10:20:06.372Z,45.29
2018-04-17T10:21:11.970Z,46.47
2018-04-17T10:22:17.387Z,44.06
2018-04-17T10:23:22.901Z,44.35
2018-04-17T10:24:28.418Z,46.37
2018-04-17T10:25:33.941Z,47.05
2018-04-17T10:26:39.458Z,47.14
2018-04-17T10:27:44.973Z,47.05
2018-04-17T10:28:50.499Z,45.41
2018-04-17T10:29:56.013Z,46.20
2018-04-17T10:31:01.530Z,45.24
2018-04-17T10:32:07.051Z,44.95
2018-04-17T10:33:12.566Z,45.43
2018-04-17T10:34:18.085Z,45.04
2018-04-17T10:35:23.605Z,45.34
2018-04-17T10:36:29.119Z,45.62
2018-04-17T10:37:34.642Z,44.66
2018-04-17T10:38:40.156Z,46.01
2018-04-17T10:39:45.729Z,44.56
2018-04-17T10:40:51.198Z,46.59
2018-04-17T10:41:56.710Z,44.59
2018-04-17T10:43:02.231Z,43.43
2018-04-17T10:44:07.753Z,42.56
2018-04-17T10:45:13.283Z,44.08
2018-04-17T10:46:18.787Z,43.91
2018-04-17T10:47:24.309Z,44.01
2018-04-17T10:48:29.824Z,43.04
2018-04-17T10:49:35.352Z,42.94
2018-04-17T10:50:40.866Z,44.20
2018-04-17T10:51:46.381Z,44.68
2018-04-17T10:52:51.898Z,44.20
2018-04-17T10:53:57.418Z,42.66
2018-04-17T10:55:02.990Z,43.04
2018-04-17T10:56:08.465Z,43.91
2018-04-17T10:57:13.973Z,41.88
2018-04-17T10:58:19.500Z,41.60
2018-04-17T10:59:25.017Z,42.56
2018-04-17T11:00:30.551Z,42.46
2018-04-17T11:01:36.048Z,43.14
2018-04-17T11:02:41.580Z,42.94
2018-04-17T11:03:47.086Z,42.56
2018-04-17T11:04:52.657Z,43.14
2018-04-17T11:05:58.126Z,42.46
2018-04-17T11:07:03.647Z,43.04
2018-04-17T11:08:09.168Z,44.03
2018-04-17T11:09:14.676Z,44.80
2018-04-17T11:10:20.251Z,44.22
2018-04-17T11:11:25.722Z,44.03
2018-04-17T11:12:31.239Z,43.06
2018-04-17T11:13:36.756Z,42.87
2018-04-17T11:14:42.277Z,42.21
2018-04-17T11:15:47.809Z,43.08
2018-04-17T11:16:53.316Z,42.89
2018-04-17T11:17:58.835Z,43.08
2018-04-17T11:19:04.351Z,43.37
2018-04-17T11:20:09.868Z,41.63
2018-04-17T11:21:15.403Z,41.93
2018-04-17T11:22:20.907Z,42.99
2018-04-17T11:23:26.432Z,42.60
2018-04-17T11:24:31.946Z,41.83
2018-04-17T11:25:37.469Z,41.66
2018-04-17T11:26:42.987Z,42.62
2018-04-17T11:27:48.514Z,43.01
2018-04-17T11:28:54.026Z,42.72
2018-04-17T11:29:59.560Z,41.36
2018-04-17T11:31:05.068Z,41.94
2018-04-17T11:32:10.589Z,40.40
2018-04-17T11:33:16.103Z,40.59
2018-04-17T11:34:21.622Z,40.90
2018-04-17T11:35:27.138Z,40.71
2018-04-17T11:36:32.660Z,40.52
2018-04-17T11:37:38.179Z,40.71
2018-04-17T11:38:43.699Z,41.29
2018-04-17T11:39:49.220Z,41.48
2018-04-17T11:40:54.739Z,40.90
2018-04-17T11:42:00.275Z,40.03
2018-04-17T11:43:05.791Z,40.03
2018-04-17T11:44:11.303Z,39.57
2018-04-17T11:45:16.831Z,40.15
2018-04-17T11:46:22.351Z,40.90
2018-04-17T11:47:27.856Z,40.15
2018-04-17T11:48:33.402Z,38.41
2018-04-17T11:49:38.903Z,40.25
2018-04-17T11:50:44.426Z,38.89
2018-04-17T11:51:49.949Z,37.63
2018-04-17T11:52:55.466Z,37.54
2018-04-17T11:54:00.976Z,36.66
2018-04-17T11:55:06.499Z,37.73
2018-04-17T11:56:12.033Z,39.28
2018-04-17T11:57:17.539Z,39.28
2018-04-17T11:58:23.067Z,38.60
2018-04-17T11:59:28.577Z,39.59
2018-04-17T12:00:34.099Z,39.88
2018-04-17T12:01:39.641Z,39.78
2018-04-17T12:02:45.139Z,40.07
2018-04-17T12:03:50.656Z,38.43
2018-04-17T12:04:56.205Z,38.62
2018-04-17T12:06:01.713Z,39.20
2018-04-17T12:07:07.227Z,38.71
2018-04-17T12:08:12.739Z,36.60
2018-04-17T12:09:18.259Z,36.32
2018-04-17T12:10:23.778Z,35.83
2018-04-17T12:11:29.300Z,35.93
2018-04-17T12:12:34.831Z,36.70
2018-04-17T12:13:40.344Z,35.05
2018-04-17T12:14:45.870Z,36.60
2018-04-17T12:15:51.387Z,35.83
2018-04-17T12:16:56.917Z,36.60
2018-04-17T12:18:02.429Z,36.32
2018-04-17T12:19:07.944Z,36.41
2018-04-17T12:20:13.464Z,38.06
2018-04-17T12:21:18.988Z,37.57
2018-04-17T12:22:24.529Z,35.44
2018-04-17T12:23:30.029Z,36.51
2018-04-17T12:24:35.549Z,36.41
2018-04-17T12:25:41.068Z,36.22
2018-04-17T12:26:46.587Z,37.67
2018-04-17T12:27:52.109Z,37.87
2018-04-17T12:28:57.627Z,36.12
2018-04-17T12:30:03.147Z,36.43
2018-04-17T12:31:08.669Z,37.40
2018-04-17T12:32:14.189Z,35.36
2018-04-17T12:33:19.709Z,35.56
2018-04-17T12:34:25.271Z,37.19
2018-04-17T12:35:30.749Z,38.85
2018-04-17T12:36:36.283Z,36.91
2018-04-17T12:37:41.796Z,36.14
2018-04-17T12:38:47.313Z,36.72
2018-04-17T12:39:52.850Z,35.46
2018-04-17T12:40:58.358Z,34.99
2018-04-17T12:42:03.875Z,35.48
2018-04-17T12:43:09.400Z,35.57
2018-04-17T12:44:14.918Z,35.67
2018-04-17T12:45:20.438Z,35.67
2018-04-17T12:46:25.957Z,35.19
2018-04-17T12:47:31.480Z,35.38
2018-04-17T12:48:37.007Z,36.35
2018-04-17T12:49:42.527Z,35.11
2018-04-17T12:50:48.047Z,35.38
2018-04-17T12:51:53.613Z,35.01
2018-04-17T12:52:59.090Z,35.48
2018-04-17T12:54:04.612Z,35.48
2018-04-17T12:55:10.130Z,36.08
2018-04-17T12:56:15.650Z,35.11
2018-04-17T12:57:21.177Z,34.53
2018-04-17T12:58:26.692Z,35.78
2018-04-17T12:59:32.211Z,35.11
2018-04-17T13:00:37.731Z,34.33
2018-04-17T13:01:43.253Z,35.30
2018-04-17T13:02:48.777Z,34.23
2018-04-17T13:03:54.301Z,35.21
2018-04-17T13:04:59.817Z,34.14
2018-04-17T13:06:05.348Z,35.11
2018-04-17T13:07:10.873Z,34.91
2018-04-17T13:08:16.382Z,34.91
2018-04-17T13:09:21.904Z,35.21
2018-04-17T13:10:27.425Z,35.40
2018-04-17T13:11:32.949Z,34.91
2018-04-17T13:12:38.474Z,36.46
2018-04-17T13:13:43.992Z,36.66
2018-04-17T13:14:49.511Z,37.73
2018-04-17T13:15:55.032Z,36.36
2018-04-17T13:17:00.560Z,36.18
2018-04-17T13:18:06.077Z,35.21
2018-04-17T13:19:11.598Z,34.62
2018-04-17T13:20:17.126Z,35.30
2018-04-17T13:21:22.644Z,36.66
2018-04-17T13:22:28.163Z,36.66
2018-04-17T13:23:33.681Z,36.46
2018-04-17T13:24:39.207Z,36.18
2018-04-17T13:25:44.724Z,35.30
2018-04-17T13:26:50.245Z,36.27
2018-04-17T13:27:55.768Z,36.58
2018-04-17T13:29:01.288Z,36.58
2018-04-17T13:30:06.815Z,36.19
2018-04-17T13:31:12.341Z,36.68
2018-04-17T13:32:17.858Z,35.22
2018-04-17T13:33:23.378Z,33.28
2018-04-17T13:34:28.905Z,35.71
2018-04-17T13:35:34.423Z,35.90
2018-04-17T13:36:39.950Z,36.38
2018-04-17T13:37:45.464Z,34.06
2018-04-17T13:38:50.984Z,35.22
2018-04-17T13:39:56.519Z,35.03
2018-04-17T13:41:02.028Z,35.80
2018-04-17T13:42:07.563Z,35.61
2018-04-17T13:43:13.073Z,35.03
2018-04-17T13:44:18.608Z,34.46
2018-04-17T13:45:24.115Z,33.39
2018-04-17T13:46:29.643Z,34.95
2018-04-17T13:47:35.159Z,33.20
2018-04-17T13:48:40.675Z,32.23
2018-04-17T13:49:46.205Z,33.69
2018-04-17T13:50:51.727Z,32.91
2018-04-17T13:51:57.252Z,32.52
2018-04-17T13:53:02.763Z,31.92
2018-04-17T13:54:08.323Z,31.63
2018-04-17T13:55:13.815Z,33.47
2018-04-17T13:56:19.325Z,34.93
2018-04-17T13:57:24.849Z,32.78
2018-04-17T13:58:30.372Z,33.94
2018-04-17T13:59:35.893Z,34.81
2018-04-17T14:00:41.414Z,35.21
2018-04-17T14:01:46.935Z,34.43
2018-04-17T14:02:52.454Z,34.62
2018-04-17T14:03:57.986Z,33.83